Latest Weather Observations for Salmon Gums RS

IDW60801

Issued at 10:13 pm WST Monday 29 November 2021 (issued every 10 minutes, with the page automatically refreshed every 10 minutes)

About weather observations | Map of weather stations | Latest weather observations for WA | Other Formats
Station Details ID: 012071 Name: SALMON GUMS RES.STN. Lat: -32.99 Lon: 121.62 Height: 249.0 m
Data from the previous 72 hours. | See also: Recent months at Salmon Gums RS
Date/Time
WST
Temp
°C
App
Temp
°C
Dew
Point
°C
Rel
Hum
%
Delta-T
°C
Wind Press
QNH
hPa
Press
MSL
hPa
Rain since
9am
mm
Dir  Spd
km/h
Gust
km/h
Spd
kts
Gust
kts
29/10:00pm 15.6 12.5 11.6 77 2.2 S 19 26 10 14 - - 0.0
29/09:30pm 16.4 12.9 12.2 76 2.3 S 22 32 12 17 - - 0.0
29/09:00pm 16.8 13.2 11.7 72 2.8 S 22 32 12 17 - - 0.0
29/08:30pm 16.8 13.2 11.9 73 2.7 S 22 32 12 17 - - 0.0
29/08:00pm 17.0 13.0 11.9 72 2.8 S 24 39 13 21 - - 0.0
29/07:30pm 16.9 13.9 12.0 73 2.7 S 19 28 10 15 - - 0.0
29/07:00pm 16.9 12.7 11.2 69 3.1 S 24 35 13 19 - - 0.0
29/06:30pm 18.2 14.0 11.0 63 3.9 S 24 35 13 19 - - 0.0
29/06:00pm 19.8 14.8 11.0 57 4.9 S 28 37 15 20 - - 0.0
29/05:30pm 20.7 15.7 10.8 53 5.5 S 28 41 15 22 - - 0.0
29/05:00pm 22.1 16.8 11.2 50 6.1 SSW 30 39 16 21 - - 0.0
29/04:30pm 23.4 17.9 11.8 48 6.6 S 32 43 17 23 - - 0.0
29/04:00pm 24.3 19.0 11.3 44 7.4 S 30 44 16 24 - - 0.0
29/03:30pm 26.4 21.5 11.3 39 8.7 S 28 41 15 22 - - 0.0
29/03:00pm 28.4 22.9 10.6 33 10.2 S 30 41 16 22 - - 0.0
29/02:30pm 29.8 26.4 9.3 28 11.6 SW 17 30 9 16 - - 0.0
29/02:00pm 29.2 26.2 10.8 32 10.6 SSW 17 30 9 16 - - 0.0
29/01:30pm 27.9 24.5 10.6 34 9.9 SSW 19 32 10 17 - - 0.0
29/01:00pm 27.5 24.5 10.7 35 9.6 SSW 17 28 9 15 - - 0.0
29/12:30pm 27.8 24.5 10.9 35 9.7 SSW 19 28 10 15 - - 0.0
29/12:00pm 26.9 23.3 10.6 36 9.3 SSW 20 30 11 16 - - 0.0
29/11:30am 26.3 24.2 11.2 38 8.6 SSW 13 24 7 13 - - 0.0
29/11:00am 26.0 23.4 12.1 42 8.1 SW 17 30 9 16 - - 0.0
29/10:30am 25.3 23.0 11.8 43 7.8 SW 15 24 8 13 - - 0.0
29/10:00am 24.8 22.4 12.7 47 7.1 SW 17 26 9 14 - - 0.0
29/09:30am 24.8 23.2 12.7 47 7.1 SW 13 24 7 13 - - 0.0
29/09:00am 23.3 20.9 12.6 51 6.2 SSW 17 26 9 14 - - 0.0
29/08:30am 22.6 21.2 13.4 56 5.4 SW 13 20 7 11 - - 0.0
29/08:00am 21.4 20.1 13.8 62 4.4 SW 13 19 7 10 - - 0.0
29/07:30am 20.4 19.1 13.8 66 3.8 SW 13 20 7 11 - - 0.0
29/07:00am 19.4 18.3 14.2 72 3.0 SSW 13 22 7 12 - - 0.0
29/06:30am 18.1 17.5 14.6 80 2.0 SW 11 17 6 9 - - 0.0
29/06:00am 17.2 16.7 14.8 86 1.4 SW 11 20 6 11 - - 0.0
29/05:30am 15.9 16.4 14.1 89 1.0 SW 4 7 2 4 - - 0.0
29/05:00am 14.9 15.1 12.9 88 1.1 WSW 4 6 2 3 - - 0.0
29/04:30am 14.9 15.0 12.8 87 1.2 SW 4 9 2 5 - - 0.0
29/04:00am 15.5 14.8 13.2 86 1.3 WSW 9 15 5 8 - - 0.0
29/03:30am 15.8 15.6 13.1 84 1.5 SW 6 13 3 7 - - 0.0
29/03:00am 16.2 16.0 12.9 81 1.9 WSW 6 11 3 6 - - 0.0
29/02:30am 16.6 15.9 11.5 72 2.8 SW 6 11 3 6 - - 0.0
29/02:00am 17.9 16.7 9.5 58 4.5 WSW 6 9 3 5 - - 0.0
29/01:30am 20.6 17.3 -1.2 23 9.6 WNW 6 7 3 4 - - 0.0
29/01:00am 22.5 19.3 -0.3 22 10.4 WNW 6 9 3 5 - - 0.0
29/12:30am 24.6 20.2 0.2 20 11.4 N 13 20 7 11 - - 0.0
29/12:00am 24.6 19.8 0.2 20 11.4 NNE 15 20 8 11 - - 0.0
 
Date/Time
WST
Temp
°C
App
Temp
°C
Dew
Point
°C
Rel
Hum
%
Delta-T
°C
Wind Press
QNH
hPa
Press
MSL
hPa
Rain since
9am
mm
Dir  Spd
km/h
Gust
km/h
Spd
kts
Gust
kts
28/11:30pm 24.0 20.4 0.4 21 11.0 NE 9 15 5 8 - - 0.0
28/11:00pm 24.6 20.2 0.2 20 11.4 NE 13 19 7 10 - - 0.0
28/10:30pm 24.2 20.0 -0.9 19 11.4 NE 11 17 6 9 - - 0.0
28/10:00pm 24.9 20.2 -1.8 17 12.0 ENE 13 20 7 11 - - 0.0
28/09:30pm 25.5 21.6 -1.3 17 12.2 NNE 9 13 5 7 - - 0.0
28/09:00pm 24.9 21.0 -1.8 17 12.0 NNE 9 11 5 6 - - 0.0
28/08:30pm 24.9 21.4 -1.0 18 11.8 NNE 7 9 4 5 - - 0.0
28/08:00pm 24.8 21.4 -0.4 19 11.6 NE 7 9 4 5 - - 0.0
28/07:30pm 26.6 23.2 -0.4 17 12.6 NE 7 9 4 5 - - 0.0
28/07:00pm 28.4 24.6 -0.7 15 13.7 NE 9 13 5 7 - - 0.0
28/06:30pm 30.3 26.1 -1.2 13 14.9 ENE 11 15 6 8 - - 0.0
28/06:00pm 32.7 27.8 -0.4 12 16.2 E 15 20 8 11 - - 0.0
28/05:30pm 33.3 28.9 0.1 12 16.4 E 13 20 7 11 - - 0.0
28/05:00pm 34.1 30.2 -1.8 10 17.3 ENE 9 17 5 9 - - 0.0
28/04:30pm 34.5 30.2 -1.5 10 17.5 N 11 22 6 12 - - 0.0
28/04:00pm 35.2 31.6 0.3 11 17.5 SSE 9 15 5 8 - - 0.0
28/03:30pm 35.2 32.1 0.3 11 17.5 W 6 13 3 7 - - 0.0
28/03:00pm 35.4 32.2 0.5 11 17.6 NNE 7 17 4 9 - - 0.0
28/02:30pm 35.0 31.3 0.2 11 17.4 W 9 17 5 9 - - 0.0
28/02:00pm 34.2 30.6 0.8 12 16.8 WSW 9 19 5 10 - - 0.0
28/01:30pm 33.9 30.7 0.5 12 16.7 NE 7 19 4 10 - - 0.0
28/01:00pm 34.2 30.2 0.8 12 16.8 WNW 11 19 6 10 - - 0.0
28/12:30pm 33.6 29.9 2.4 14 16.1 NW 11 19 6 10 - - 0.0
28/12:00pm 32.2 28.9 2.3 15 15.2 NNE 9 19 5 10 - - 0.0
28/11:30am 31.3 28.3 4.2 18 14.2 NNE 9 22 5 12 - - 0.0
28/11:00am 31.3 27.7 4.9 19 14.0 N 13 24 7 13 - - 0.0
28/10:30am 30.1 26.6 5.4 21 13.1 NNW 13 24 7 13 - - 0.0
28/10:00am 29.0 25.6 5.8 23 12.3 N 13 24 7 13 - - 0.0
28/09:30am 27.5 23.4 6.3 26 11.2 NNW 17 24 9 13 - - 0.0
28/09:00am 25.4 21.3 6.1 29 10.1 N 17 24 9 13 - - 0.0
28/08:30am 24.2 19.8 6.5 32 9.2 NNW 19 28 10 15 - - 0.0
28/08:00am 22.9 19.3 6.6 35 8.5 N 15 24 8 13 - - 0.0
28/07:30am 21.3 16.8 6.8 39 7.5 N 20 28 11 15 - - 0.0
28/07:00am 19.6 15.3 7.0 44 6.5 N 19 32 10 17 - - 0.0
28/06:30am 18.1 13.9 7.5 50 5.4 N 19 26 10 14 - - 0.0
28/06:00am 16.4 13.4 7.6 56 4.5 NNE 13 24 7 13 - - 0.0
28/05:30am 14.7 12.4 7.3 61 3.7 NNE 9 17 5 9 - - 0.0
28/05:00am 13.6 10.9 7.2 65 3.2 NNE 11 17 6 9 - - 0.0
28/04:30am 12.9 10.4 6.7 66 3.0 NNE 9 13 5 7 - - 0.0
28/04:00am 13.1 11.0 6.7 65 3.1 NNE 7 15 4 8 - - 0.0
28/03:30am 13.6 11.1 6.7 63 3.4 NNE 9 13 5 7 - - 0.0
28/03:00am 14.0 11.2 6.8 62 3.5 NNE 11 17 6 9 - - 0.0
28/02:30am 13.9 11.1 7.0 63 3.4 NE 11 19 6 10 - - 0.0
28/02:00am 14.2 11.0 7.0 62 3.6 NE 13 20 7 11 - - 0.0
28/01:30am 14.7 11.2 7.3 61 3.7 NE 15 20 8 11 - - 0.0
28/01:00am 15.2 11.8 7.5 60 3.9 NE 15 22 8 12 - - 0.0
28/12:30am 15.3 12.3 7.6 60 3.9 NE 13 19 7 10 - - 0.0
28/12:00am 15.8 12.4 7.6 58 4.1 ENE 15 20 8 11 - - 0.0
 
Date/Time
WST
Temp
°C
App
Temp
°C
Dew
Point
°C
Rel
Hum
%
Delta-T
°C
Wind Press
QNH
hPa
Press
MSL
hPa
Rain since
9am
mm
Dir  Spd
km/h
Gust
km/h
Spd
kts
Gust
kts
27/11:30pm 16.6 12.5 7.8 56 4.5 ENE 19 28 10 15 - - 0.0
27/11:00pm 17.4 13.3 8.0 54 4.8 ENE 19 28 10 15 - - 0.0
27/10:30pm 18.2 14.6 8.5 53 5.1 ENE 17 28 9 15 - - 0.0
27/10:00pm 19.2 15.3 8.8 51 5.5 E 19 24 10 13 - - 0.0
27/09:30pm 20.8 17.7 8.8 46 6.4 ENE 15 22 8 12 - - 0.0
27/09:00pm 21.5 17.9 8.4 43 7.0 ENE 17 22 9 12 - - 0.0
27/08:30pm 22.1 18.0 6.3 36 8.1 E 17 22 9 12 - - 0.0
27/08:00pm 22.2 18.9 4.3 31 8.9 E 11 17 6 9 - - 0.0
27/07:30pm 23.0 20.0 4.0 29 9.4 ENE 9 15 5 8 - - 0.0
27/07:00pm 22.8 19.9 2.8 27 9.7 E 7 9 4 5 - - 0.0
27/06:30pm 26.1 23.3 3.4 23 11.3 ESE 7 13 4 7 - - 0.0
27/06:00pm 28.2 25.1 3.8 21 12.4 E 9 15 5 8 - - 0.0
27/05:30pm 28.8 24.9 3.6 20 12.9 ENE 13 20 7 11 - - 0.0
27/05:00pm 29.1 26.2 4.6 21 12.7 ENE 9 15 5 8 - - 0.0
27/04:30pm 28.2 25.3 4.5 22 12.2 E 9 13 5 7 - - 0.0
27/04:00pm 28.2 24.4 3.8 21 12.4 ESE 13 19 7 10 - - 0.0
27/03:30pm 29.9 26.1 3.8 19 13.4 E 13 22 7 12 - - 0.0
27/03:00pm 29.6 26.9 5.6 22 12.7 E 9 24 5 13 - - 0.0
27/02:30pm 30.1 27.5 6.1 22 12.9 ENE 9 20 5 11 - - 0.0
27/02:00pm 28.8 25.7 5.6 23 12.2 ENE 11 20 6 11 - - 0.0
27/01:30pm 28.5 25.5 6.0 24 11.9 E 11 22 6 12 - - 0.0
27/01:00pm 28.5 25.9 7.7 27 11.4 ENE 11 24 6 13 - - 0.0
27/12:30pm 27.2 24.1 7.1 28 10.8 ENE 13 24 7 13 - - 0.0
27/12:00pm 28.0 25.0 7.8 28 11.0 ESE 13 20 7 11 - - 0.0
27/11:30am 26.7 23.9 8.6 32 9.9 ENE 13 26 7 14 - - 0.0
27/11:00am 25.4 22.7 8.8 35 9.1 N 13 24 7 13 - - 0.0
27/10:30am 24.9 21.6 9.6 38 8.5 NNE 17 28 9 15 - - 0.0
27/10:00am 24.7 22.1 10.6 41 7.9 NNE 15 20 8 11 - - 0.0
27/09:30am 23.4 20.8 10.8 45 7.1 NNE 15 24 8 13 - - 0.0
27/09:00am 22.1 19.0 11.5 51 6.0 NNE 19 28 10 15 - - 0.0
27/08:30am 20.9 17.7 11.3 54 5.4 NE 19 28 10 15 - - 0.0
27/08:00am 19.6 16.3 11.6 60 4.5 NE 20 30 11 16 - - 0.0
27/07:30am 18.6 15.8 11.2 62 4.1 NE 17 26 9 14 - - 0.0
27/07:00am 17.0 13.2 11.3 69 3.1 NE 22 32 12 17 - - 0.0
27/06:30am 15.5 11.7 11.1 75 2.4 NE 22 32 12 17 - - 0.0
27/06:00am 14.6 11.4 11.2 80 1.8 NE 19 28 10 15 - - 0.0
27/05:30am 13.6 10.7 11.0 84 1.4 ENE 17 22 9 12 - - 0.0
27/05:00am 12.8 10.1 10.5 86 1.2 ENE 15 20 8 11 - - 0.0
27/04:30am 12.6 9.9 10.3 86 1.2 ENE 15 22 8 12 - - 0.0
27/04:00am 12.5 10.1 10.0 85 1.3 ENE 13 17 7 9 - - 0.0
27/03:30am 12.9 10.1 10.1 83 1.5 ENE 15 22 8 12 - - 0.0
27/03:00am 13.3 10.2 10.3 82 1.6 ENE 17 22 9 12 - - 0.0
27/02:30am 13.6 10.5 10.2 80 1.8 ENE 17 24 9 13 - - 0.0
27/02:00am 13.9 10.8 10.3 79 1.9 ENE 17 24 9 13 - - 0.0
27/01:30am 14.1 11.4 10.5 79 1.9 ENE 15 22 8 12 - - 0.0
27/01:00am 14.0 12.1 10.4 79 1.9 ENE 11 19 6 10 - - 0.0
27/12:30am 14.6 12.0 10.6 77 2.1 E 15 19 8 10 - - 0.0
27/12:00am 15.1 12.5 10.7 75 2.4 E 15 20 8 11 - - 0.0
 
Date/Time
WST
Temp
°C
App
Temp
°C
Dew
Point
°C
Rel
Hum
%
Delta-T
°C
Wind Press
QNH
hPa
Press
MSL
hPa
Rain since
9am
mm
Dir  Spd
km/h
Gust
km/h
Spd
kts
Gust
kts
26/11:30pm 15.8 13.0 11.2 74 2.5 E 17 22 9 12 - - 0.0
26/11:00pm 16.1 13.1 10.8 71 2.9 E 17 22 9 12 - - 0.0
26/10:30pm 17.1 13.9 11.4 69 3.1 E 19 26 10 14 - - 0.0

Other formats

Comma delimited format used in spreadsheet applications
http://www.bom.gov.au/fwo/IDW60801/IDW60801.95639.axf

JavaScript Object Notation format (JSON) in row-major order
http://www.bom.gov.au/fwo/IDW60801/IDW60801.95639.json

Data quality

Most of these data are generated automatically and are frequently updated. Quality checks on data are not normally performed. It is possible for incorrect values to appear. Refer to information at About Latest Weather Observations and please check the disclaimer before using these data.